Hauptseite
METAR-TAF:

METAR-TAF

Flughäfen :

Payerne, Schweiz

Militärflugplatz Payerne

Breite: 46-49N, Länge: 006-57E, Höhe: 490 m

Beobachtung

Neuester Wetterbericht von vor 54 Minuten, um 18:50 UTC
Wind 9 kt aus Südwest
Temperatur 10°C
Luftfeuchtigkeit 82%
Luftdruck 1016 hPa
Sichtweite 10 km oder mehr
Aufgelockert bewölkt in der Höhe von 3900 ft
Durchbrochene Bewölkung in der Höhe von 4900 ft
Geschlossene Wolkendecke in der Höhe von 7000 ft
Leichtregen

METAR: LSMP 221850Z 23009KT 9999 -RA SCT039 BKN049 OVC070 10/07 Q1016 RMK BLU

Zeit: 20:44 (19:44 UTC)


TAF: fehlend

Wetterbeobachtungen und Prognosen von mehr als 4000 Flughäfen (METAR und TAF Bericht).

Die verfügbaren Stationen werden durch gelbe und rote Markierungen auf der Karte dargestellt.

Führen Sie die Maus auf sie, um den Namen der Station zu sehen.

Darauf klicken, um die Beobachtung von Wetterbeobachtungen und Prognosen zu sehen.

Um die Karte zu ändern : klicken Sie auf den grünen Tasten mit einem schwarzen Kreuz Zum Vergrößern, auf den grünen Button mit einem Gedankenstrich zu verkleinern, oder auf die grünen Pfeile für benachbarte Karten.


METAR-TAF: